Bokeelia, Florida
Current Conditions -  °F | °C
As of 6:53 PM on Saturday 25 Oct 2014 (Local Time) from KPGD Reporting Station
Clear Clear  
Wind Chill: 74°   Ceiling: Unl
Heat Index: 74°   Visibility: 10mi
Dew Point: 57°   Wind: 5mph
Humidity: 55%   Direction: 20°NNE
Pressure: 29.95"   Gusts: NA
Location:  26.71°N, 82.16°W
Report Text: KPGD 252253Z 02004KT 10SM CLR 23/14 A2995 RMK AO2 SLP142 T02330139
Loading
Personal Weather Stations






























Interactive Weather Map
Tropical Storm Tracking
New forecast layout! Learn more

10-Day Weather Forecast

Advertisements
Track Severe Weather on mobile